Search for airport 
image banner adimage banner adimage banner ad
image banner ad

3PS2 - Chestnut Street Garage

Located in Harrisburg, United States

ICAO - 3PS2, IATA -

Data provided by Airmate  

General information

Coordinates: N40°15'30" W76°52'47"
Elevation is 385 feet MSL.
Magnetic variation is -10° East
View others Airports in Pennsylvania

Operational data

Special qualification required
Current time UTC:
Current local time:
Weather at : KCXY - Capital City ( 5 km )
METAR: KCXY 071356Z 11006KT 10SM SCT100 BKN120 13/01 A2990 RMK AO2 SLP127 T01330011
View NOTAMs / SUP AIP / TFR affecting this airport [VIEW]
Communications frequencies: [VIEW]

Runways:

Airport contact information

Address: Harrisburg United States

Satellite view of 3PS2